sensor_id;sensor_type;location;lat;lon;timestamp;pressure;altitude;pressure_sealevel;temperature;humidity
55759;BME280;41678;52.126;20.664;2022-09-09T00:00:14;100037.94;;;14.11;60.75
55759;BME280;41678;52.126;20.664;2022-09-09T00:11:15;100038.13;;;14.05;62.32
55759;BME280;41678;52.126;20.664;2022-09-09T00:16:38;100040.03;;;13.99;61.88
55759;BME280;41678;52.126;20.664;2022-09-09T00:22:07;100037.56;;;13.93;63.10
55759;BME280;41678;52.126;20.664;2022-09-09T00:32:59;100045.78;;;13.84;63.60
55759;BME280;41678;52.126;20.664;2022-09-09T00:43:46;100053.34;;;13.66;63.56
55759;BME280;41678;52.126;20.664;2022-09-09T00:54:53;100047.34;;;13.59;64.07
55759;BME280;41678;52.126;20.664;2022-09-09T01:00:22;100039.25;;;13.64;64.40
55759;BME280;41678;52.126;20.664;2022-09-09T01:11:12;100028.34;;;13.45;64.34
55759;BME280;41678;52.126;20.664;2022-09-09T01:16:34;100034.25;;;13.55;66.13
55759;BME280;41678;52.126;20.664;2022-09-09T01:21:59;100037.91;;;13.51;65.66
55759;BME280;41678;52.126;20.664;2022-09-09T01:27:22;100038.97;;;13.43;66.20
55759;BME280;41678;52.126;20.664;2022-09-09T01:32:44;100035.47;;;13.41;65.63
55759;BME280;41678;52.126;20.664;2022-09-09T01:38:05;100029.44;;;13.36;66.37
55759;BME280;41678;52.126;20.664;2022-09-09T01:43:26;100033.06;;;13.32;65.43
55759;BME280;41678;52.126;20.664;2022-09-09T01:48:46;100034.06;;;13.28;65.81
55759;BME280;41678;52.126;20.664;2022-09-09T01:54:06;100026.13;;;13.28;67.93
55759;BME280;41678;52.126;20.664;2022-09-09T02:04:54;100031.72;;;13.15;67.59
55759;BME280;41678;52.126;20.664;2022-09-09T02:10:22;100023.06;;;13.10;65.76
55759;BME280;41678;52.126;20.664;2022-09-09T02:15:57;100023.81;;;13.15;65.68
55759;BME280;41678;52.126;20.664;2022-09-09T02:21:18;100028.28;;;13.13;66.33
55759;BME280;41678;52.126;20.664;2022-09-09T02:26:39;100024.88;;;13.08;66.67
55759;BME280;41678;52.126;20.664;2022-09-09T02:32:03;100020.53;;;13.06;66.09
55759;BME280;41678;52.126;20.664;2022-09-09T02:37:29;100026.53;;;13.12;66.01
55759;BME280;41678;52.126;20.664;2022-09-09T02:42:51;100024.47;;;13.24;66.93
55759;BME280;41678;52.126;20.664;2022-09-09T02:48:16;100019.44;;;13.14;67.07
55759;BME280;41678;52.126;20.664;2022-09-09T02:53:43;100034.63;;;13.06;67.03
55759;BME280;41678;52.126;20.664;2022-09-09T02:59:06;100027.25;;;13.19;67.33
55759;BME280;41678;52.126;20.664;2022-09-09T03:04:28;100029.91;;;13.17;67.87
55759;BME280;41678;52.126;20.664;2022-09-09T03:09:50;100018.53;;;13.15;67.64
55759;BME280;41678;52.126;20.664;2022-09-09T03:15:10;100026.63;;;13.09;67.89
55759;BME280;41678;52.126;20.664;2022-09-09T03:20:31;100029.38;;;13.04;67.01
55759;BME280;41678;52.126;20.664;2022-09-09T03:25:51;100035.59;;;13.02;67.46
55759;BME280;41678;52.126;20.664;2022-09-09T03:31:16;100030.19;;;13.08;67.39
55759;BME280;41678;52.126;20.664;2022-09-09T03:36:37;100038.06;;;13.10;67.42
55759;BME280;41678;52.126;20.664;2022-09-09T03:41:58;100029.09;;;13.15;68.68
55759;BME280;41678;52.126;20.664;2022-09-09T03:47:18;100031.81;;;13.12;68.69
55759;BME280;41678;52.126;20.664;2022-09-09T03:52:38;100026.94;;;12.97;68.19
55759;BME280;41678;52.126;20.664;2022-09-09T03:58:03;100028.75;;;12.95;67.37
55759;BME280;41678;52.126;20.664;2022-09-09T04:03:23;100032.22;;;12.97;67.33
55759;BME280;41678;52.126;20.664;2022-09-09T04:08:44;100031.28;;;12.99;67.67
55759;BME280;41678;52.126;20.664;2022-09-09T04:14:06;100040.19;;;12.95;67.80
55759;BME280;41678;52.126;20.664;2022-09-09T04:19:27;100046.34;;;12.96;67.73
55759;BME280;41678;52.126;20.664;2022-09-09T04:24:46;100043.00;;;12.87;67.40
55759;BME280;41678;52.126;20.664;2022-09-09T04:30:06;100042.06;;;12.90;67.24
55759;BME280;41678;52.126;20.664;2022-09-09T04:35:27;100046.50;;;12.89;67.42
55759;BME280;41678;52.126;20.664;2022-09-09T04:40:47;100054.16;;;13.00;67.54
55759;BME280;41678;52.126;20.664;2022-09-09T04:46:07;100049.91;;;12.95;67.25
55759;BME280;41678;52.126;20.664;2022-09-09T04:51:26;100041.97;;;12.95;67.21
55759;BME280;41678;52.126;20.664;2022-09-09T04:56:46;100053.56;;;12.89;67.01
55759;BME280;41678;52.126;20.664;2022-09-09T05:02:06;100061.56;;;12.86;67.26
55759;BME280;41678;52.126;20.664;2022-09-09T05:07:26;100065.78;;;12.93;67.18
55759;BME280;41678;52.126;20.664;2022-09-09T05:12:52;100066.75;;;12.91;67.23
55759;BME280;41678;52.126;20.664;2022-09-09T05:18:14;100067.66;;;12.89;67.35
55759;BME280;41678;52.126;20.664;2022-09-09T05:23:34;100067.56;;;12.93;67.24
55759;BME280;41678;52.126;20.664;2022-09-09T05:28:53;100061.31;;;12.95;66.88
55759;BME280;41678;52.126;20.664;2022-09-09T05:34:14;100064.00;;;12.94;67.10
55759;BME280;41678;52.126;20.664;2022-09-09T05:39:34;100065.78;;;12.93;66.37
55759;BME280;41678;52.126;20.664;2022-09-09T05:44:56;100061.41;;;12.92;66.81
55759;BME280;41678;52.126;20.664;2022-09-09T05:50:17;100071.50;;;13.11;68.51
55759;BME280;41678;52.126;20.664;2022-09-09T05:55:36;100079.50;;;13.08;67.75
55759;BME280;41678;52.126;20.664;2022-09-09T06:01:01;100074.19;;;13.09;68.07
55759;BME280;41678;52.126;20.664;2022-09-09T06:06:23;100078.72;;;13.04;68.25
55759;BME280;41678;52.126;20.664;2022-09-09T06:11:44;100080.59;;;13.00;68.07
55759;BME280;41678;52.126;20.664;2022-09-09T06:17:06;100095.56;;;13.00;67.64
55759;BME280;41678;52.126;20.664;2022-09-09T06:22:25;100093.63;;;13.08;67.61
55759;BME280;41678;52.126;20.664;2022-09-09T06:27:48;100100.38;;;13.18;68.19
55759;BME280;41678;52.126;20.664;2022-09-09T06:33:08;100092.63;;;13.12;68.24
55759;BME280;41678;52.126;20.664;2022-09-09T06:38:29;100087.41;;;13.09;67.73
55759;BME280;41678;52.126;20.664;2022-09-09T06:43:49;100093.34;;;13.17;67.79
55759;BME280;41678;52.126;20.664;2022-09-09T06:49:09;100096.91;;;13.16;67.92
55759;BME280;41678;52.126;20.664;2022-09-09T06:54:29;100098.50;;;13.24;68.79
55759;BME280;41678;52.126;20.664;2022-09-09T06:59:49;100105.34;;;13.31;68.68
55759;BME280;41678;52.126;20.664;2022-09-09T07:05:10;100107.03;;;13.35;69.33
55759;BME280;41678;52.126;20.664;2022-09-09T07:10:31;100104.63;;;13.26;69.04
55759;BME280;41678;52.126;20.664;2022-09-09T07:15:51;100108.91;;;13.30;69.05
55759;BME280;41678;52.126;20.664;2022-09-09T07:21:12;100115.72;;;13.40;69.58
55759;BME280;41678;52.126;20.664;2022-09-09T07:26:32;100123.72;;;13.37;69.37
55759;BME280;41678;52.126;20.664;2022-09-09T07:31:54;100124.56;;;13.39;69.67
55759;BME280;41678;52.126;20.664;2022-09-09T07:37:19;100129.84;;;13.39;68.96
55759;BME280;41678;52.126;20.664;2022-09-09T07:42:40;100140.34;;;13.44;69.29
55759;BME280;41678;52.126;20.664;2022-09-09T07:47:59;100147.16;;;13.53;69.82
55759;BME280;41678;52.126;20.664;2022-09-09T07:53:19;100150.78;;;13.49;69.31
55759;BME280;41678;52.126;20.664;2022-09-09T07:58:40;100156.06;;;13.49;70.46
55759;BME280;41678;52.126;20.664;2022-09-09T08:04:00;100162.25;;;13.49;70.37
55759;BME280;41678;52.126;20.664;2022-09-09T08:09:21;100165.75;;;13.50;69.49
55759;BME280;41678;52.126;20.664;2022-09-09T08:14:45;100171.78;;;13.55;70.59
55759;BME280;41678;52.126;20.664;2022-09-09T08:20:05;100169.88;;;13.60;69.94
55759;BME280;41678;52.126;20.664;2022-09-09T08:25:30;100164.59;;;13.60;69.32
55759;BME280;41678;52.126;20.664;2022-09-09T08:30:50;100174.69;;;13.79;69.68
55759;BME280;41678;52.126;20.664;2022-09-09T08:36:19;100171.97;;;13.82;70.70
55759;BME280;41678;52.126;20.664;2022-09-09T08:52:49;100178.72;;;13.94;70.50
55759;BME280;41678;52.126;20.664;2022-09-09T08:58:17;100177.84;;;13.93;69.90
55759;BME280;41678;52.126;20.664;2022-09-09T09:14:41;100199.47;;;14.09;71.38
55759;BME280;41678;52.126;20.664;2022-09-09T09:20:02;100201.13;;;14.13;72.44
55759;BME280;41678;52.126;20.664;2022-09-09T09:25:23;100202.00;;;14.14;73.24
55759;BME280;41678;52.126;20.664;2022-09-09T09:30:54;100197.47;;;14.17;73.42
55759;BME280;41678;52.126;20.664;2022-09-09T09:36:17;100199.22;;;14.19;71.58
55759;BME280;41678;52.126;20.664;2022-09-09T09:41:40;100192.81;;;14.27;70.58
55759;BME280;41678;52.126;20.664;2022-09-09T09:52:31;100195.84;;;14.43;71.03
55759;BME280;41678;52.126;20.664;2022-09-09T09:57:54;100202.94;;;14.43;70.54
55759;BME280;41678;52.126;20.664;2022-09-09T10:03:24;100209.09;;;14.43;70.45
55759;BME280;41678;52.126;20.664;2022-09-09T10:08:46;100214.28;;;14.48;70.04
55759;BME280;41678;52.126;20.664;2022-09-09T10:14:08;100213.25;;;14.52;70.14
55759;BME280;41678;52.126;20.664;2022-09-09T10:19:32;100223.31;;;14.72;70.10
55759;BME280;41678;52.126;20.664;2022-09-09T10:30:19;100248.97;;;14.72;70.79
55759;BME280;41678;52.126;20.664;2022-09-09T10:35:44;100253.25;;;14.76;70.40
55759;BME280;41678;52.126;20.664;2022-09-09T10:57:11;100265.22;;;14.90;70.17
55759;BME280;41678;52.126;20.664;2022-09-09T11:02:33;100265.84;;;14.98;70.49
55759;BME280;41678;52.126;20.664;2022-09-09T11:18:53;100275.47;;;15.02;69.40
55759;BME280;41678;52.126;20.664;2022-09-09T11:24:22;100280.66;;;15.05;69.53
55759;BME280;41678;52.126;20.664;2022-09-09T11:40:45;100289.00;;;15.21;70.02
55759;BME280;41678;52.126;20.664;2022-09-09T11:46:06;100289.00;;;15.21;69.47
55759;BME280;41678;52.126;20.664;2022-09-09T11:51:27;100280.19;;;15.21;69.31
55759;BME280;41678;52.126;20.664;2022-09-09T11:56:48;100283.66;;;15.23;69.27
55759;BME280;41678;52.126;20.664;2022-09-09T12:08:00;100286.19;;;15.27;69.77
55759;BME280;41678;52.126;20.664;2022-09-09T12:13:22;100285.94;;;15.35;69.55
55759;BME280;41678;52.126;20.664;2022-09-09T12:18:42;100289.19;;;15.43;71.93
55759;BME280;41678;52.126;20.664;2022-09-09T12:24:05;100284.63;;;15.49;70.73
55759;BME280;41678;52.126;20.664;2022-09-09T12:34:57;100270.13;;;15.59;70.47
55759;BME280;41678;52.126;20.664;2022-09-09T12:40:20;100276.59;;;15.79;71.58
55759;BME280;41678;52.126;20.664;2022-09-09T12:45:40;100281.13;;;15.75;71.80
55759;BME280;41678;52.126;20.664;2022-09-09T12:51:00;100283.00;;;15.71;71.32
55759;BME280;41678;52.126;20.664;2022-09-09T12:56:24;100270.50;;;15.75;71.83
55759;BME280;41678;52.126;20.664;2022-09-09T13:01:55;100273.09;;;15.77;71.30
55759;BME280;41678;52.126;20.664;2022-09-09T13:07:14;100266.56;;;15.87;71.38
55759;BME280;41678;52.126;20.664;2022-09-09T13:12:35;100265.47;;;15.94;72.09
55759;BME280;41678;52.126;20.664;2022-09-09T13:17:56;100265.16;;;16.04;72.22
55759;BME280;41678;52.126;20.664;2022-09-09T13:23:17;100256.50;;;15.98;71.98
55759;BME280;41678;52.126;20.664;2022-09-09T13:28:38;100262.59;;;16.00;72.05
55759;BME280;41678;52.126;20.664;2022-09-09T13:33:58;100260.56;;;16.09;72.02
55759;BME280;41678;52.126;20.664;2022-09-09T13:39:17;100268.34;;;16.13;72.75
55759;BME280;41678;52.126;20.664;2022-09-09T13:44:38;100267.50;;;16.13;72.89
55759;BME280;41678;52.126;20.664;2022-09-09T13:49:58;100264.69;;;16.18;72.36
55759;BME280;41678;52.126;20.664;2022-09-09T13:55:28;100275.34;;;16.16;72.04
55759;BME280;41678;52.126;20.664;2022-09-09T14:00:48;100275.22;;;16.19;72.15
55759;BME280;41678;52.126;20.664;2022-09-09T14:06:09;100282.41;;;16.17;72.48
55759;BME280;41678;52.126;20.664;2022-09-09T14:11:29;100274.22;;;16.23;72.43
55759;BME280;41678;52.126;20.664;2022-09-09T14:16:48;100270.38;;;16.32;72.83
55759;BME280;41678;52.126;20.664;2022-09-09T14:22:08;100269.19;;;16.41;73.33
55759;BME280;41678;52.126;20.664;2022-09-09T14:27:27;100283.69;;;16.56;75.02
55759;BME280;41678;52.126;20.664;2022-09-09T14:32:46;100277.59;;;16.52;74.00
55759;BME280;41678;52.126;20.664;2022-09-09T14:38:06;100284.75;;;16.50;73.94
55759;BME280;41678;52.126;20.664;2022-09-09T14:43:26;100299.75;;;16.53;73.86
55759;BME280;41678;52.126;20.664;2022-09-09T14:48:47;100285.53;;;16.54;73.69
55759;BME280;41678;52.126;20.664;2022-09-09T14:54:10;100289.88;;;16.56;73.70
55759;BME280;41678;52.126;20.664;2022-09-09T14:59:29;100282.81;;;16.55;73.77
55759;BME280;41678;52.126;20.664;2022-09-09T15:04:49;100279.13;;;16.60;74.26
55759;BME280;41678;52.126;20.664;2022-09-09T15:10:09;100280.63;;;16.67;74.49
55759;BME280;41678;52.126;20.664;2022-09-09T15:15:29;100277.31;;;16.60;74.35
55759;BME280;41678;52.126;20.664;2022-09-09T15:20:49;100279.38;;;16.53;74.19
55759;BME280;41678;52.126;20.664;2022-09-09T15:26:08;100290.00;;;16.53;73.79
55759;BME280;41678;52.126;20.664;2022-09-09T15:31:30;100291.81;;;16.51;74.32
55759;BME280;41678;52.126;20.664;2022-09-09T15:36:50;100292.03;;;16.45;74.04
55759;BME280;41678;52.126;20.664;2022-09-09T15:42:10;100282.81;;;16.55;74.61
55759;BME280;41678;52.126;20.664;2022-09-09T15:47:30;100275.88;;;16.51;74.52
55759;BME280;41678;52.126;20.664;2022-09-09T15:52:49;100270.78;;;16.45;73.95
55759;BME280;41678;52.126;20.664;2022-09-09T15:58:08;100273.56;;;16.42;74.43
55759;BME280;41678;52.126;20.664;2022-09-09T16:03:28;100274.59;;;16.38;73.85
55759;BME280;41678;52.126;20.664;2022-09-09T16:08:50;100284.97;;;16.46;74.49
55759;BME280;41678;52.126;20.664;2022-09-09T16:14:09;100288.69;;;16.40;73.90
55759;BME280;41678;52.126;20.664;2022-09-09T16:19:30;100282.78;;;16.32;73.88
55759;BME280;41678;52.126;20.664;2022-09-09T16:24:50;100271.19;;;16.34;73.67
55759;BME280;41678;52.126;20.664;2022-09-09T16:30:09;100273.56;;;16.42;74.53
55759;BME280;41678;52.126;20.664;2022-09-09T16:35:29;100276.66;;;16.29;74.71
55759;BME280;41678;52.126;20.664;2022-09-09T16:40:49;100269.75;;;16.24;74.44
55759;BME280;41678;52.126;20.664;2022-09-09T16:46:16;100275.50;;;16.11;73.93
55759;BME280;41678;52.126;20.664;2022-09-09T16:51:37;100278.81;;;16.18;74.21
55759;BME280;41678;52.126;20.664;2022-09-09T16:56:57;100277.41;;;16.08;74.30
55759;BME280;41678;52.126;20.664;2022-09-09T17:02:18;100287.38;;;16.01;74.19
55759;BME280;41678;52.126;20.664;2022-09-09T17:07:38;100286.50;;;16.00;74.50
55759;BME280;41678;52.126;20.664;2022-09-09T17:12:57;100293.97;;;15.89;74.28
55759;BME280;41678;52.126;20.664;2022-09-09T17:18:17;100295.44;;;15.98;74.65
55759;BME280;41678;52.126;20.664;2022-09-09T17:23:36;100301.88;;;15.91;74.90
55759;BME280;41678;52.126;20.664;2022-09-09T17:28:57;100310.06;;;15.83;74.24
55759;BME280;41678;52.126;20.664;2022-09-09T17:34:20;100315.38;;;15.83;74.26
55759;BME280;41678;52.126;20.664;2022-09-09T17:39:39;100318.28;;;15.75;73.87
55759;BME280;41678;52.126;20.664;2022-09-09T17:44:59;100317.34;;;15.78;74.22
55759;BME280;41678;52.126;20.664;2022-09-09T17:50:19;100321.88;;;15.74;74.86
55759;BME280;41678;52.126;20.664;2022-09-09T17:55:38;100337.13;;;15.67;74.70
55759;BME280;41678;52.126;20.664;2022-09-09T18:01:02;100329.34;;;15.61;75.35
55759;BME280;41678;52.126;20.664;2022-09-09T18:06:25;100337.00;;;15.70;75.47
55759;BME280;41678;52.126;20.664;2022-09-09T18:11:51;100335.66;;;15.57;75.13
55759;BME280;41678;52.126;20.664;2022-09-09T18:17:11;100346.47;;;15.51;74.44
55759;BME280;41678;52.126;20.664;2022-09-09T18:22:31;100350.06;;;15.50;74.43
55759;BME280;41678;52.126;20.664;2022-09-09T18:27:51;100351.81;;;15.49;74.48
55759;BME280;41678;52.126;20.664;2022-09-09T18:33:11;100361.63;;;15.47;74.26
55759;BME280;41678;52.126;20.664;2022-09-09T18:38:32;100358.31;;;15.39;74.07
55759;BME280;41678;52.126;20.664;2022-09-09T18:43:54;100350.22;;;15.43;74.39
55759;BME280;41678;52.126;20.664;2022-09-09T18:49:16;100345.03;;;15.40;74.37
55759;BME280;41678;52.126;20.664;2022-09-09T18:54:36;100355.72;;;15.37;74.57
55759;BME280;41678;52.126;20.664;2022-09-09T18:59:55;100349.75;;;15.30;74.32
55759;BME280;41678;52.126;20.664;2022-09-09T19:05:14;100355.97;;;15.29;74.39
55759;BME280;41678;52.126;20.664;2022-09-09T19:10:37;100357.72;;;15.29;74.22
55759;BME280;41678;52.126;20.664;2022-09-09T19:16:10;100356.00;;;15.28;74.36
55759;BME280;41678;52.126;20.664;2022-09-09T19:21:31;100348.09;;;15.26;74.44
55759;BME280;41678;52.126;20.664;2022-09-09T19:26:54;100346.38;;;15.25;74.46
55759;BME280;41678;52.126;20.664;2022-09-09T19:32:15;100339.22;;;15.27;74.99
55759;BME280;41678;52.126;20.664;2022-09-09T19:37:36;100337.72;;;15.19;75.20
55759;BME280;41678;52.126;20.664;2022-09-09T19:42:56;100341.38;;;15.14;74.74
55759;BME280;41678;52.126;20.664;2022-09-09T19:48:15;100352.81;;;15.17;74.48
55759;BME280;41678;52.126;20.664;2022-09-09T19:53:37;100361.41;;;15.25;75.59
55759;BME280;41678;52.126;20.664;2022-09-09T19:58:58;100363.34;;;15.20;75.67
55759;BME280;41678;52.126;20.664;2022-09-09T20:04:17;100355.63;;;15.10;75.61
55759;BME280;41678;52.126;20.664;2022-09-09T20:09:37;100358.41;;;15.06;75.86
55759;BME280;41678;52.126;20.664;2022-09-09T20:14:57;100357.59;;;15.04;75.68
55759;BME280;41678;52.126;20.664;2022-09-09T20:20:17;100350.81;;;14.93;75.83
55759;BME280;41678;52.126;20.664;2022-09-09T20:25:38;100360.47;;;14.96;75.79
55759;BME280;41678;52.126;20.664;2022-09-09T20:31:02;100363.09;;;14.97;75.97
55759;BME280;41678;52.126;20.664;2022-09-09T20:36:23;100352.91;;;14.82;75.40
55759;BME280;41678;52.126;20.664;2022-09-09T20:41:45;100368.63;;;14.88;75.92
55759;BME280;41678;52.126;20.664;2022-09-09T20:47:06;100362.63;;;14.81;75.94
55759;BME280;41678;52.126;20.664;2022-09-09T20:52:27;100360.75;;;14.86;76.42
55759;BME280;41678;52.126;20.664;2022-09-09T20:57:47;100360.09;;;14.78;76.17
55759;BME280;41678;52.126;20.664;2022-09-09T21:03:07;100358.31;;;14.79;76.24
55759;BME280;41678;52.126;20.664;2022-09-09T21:08:27;100361.94;;;14.75;76.08
55759;BME280;41678;52.126;20.664;2022-09-09T21:13:47;100377.81;;;14.76;76.31
55759;BME280;41678;52.126;20.664;2022-09-09T21:19:06;100367.31;;;14.70;77.17
55759;BME280;41678;52.126;20.664;2022-09-09T21:24:26;100376.34;;;14.64;76.83
55759;BME280;41678;52.126;20.664;2022-09-09T21:29:45;100372.13;;;14.55;76.74
55759;BME280;41678;52.126;20.664;2022-09-09T21:35:05;100375.69;;;14.54;76.94
55759;BME280;41678;52.126;20.664;2022-09-09T21:40:25;100377.38;;;14.58;76.57
55759;BME280;41678;52.126;20.664;2022-09-09T21:45:45;100372.41;;;14.46;76.93
55759;BME280;41678;52.126;20.664;2022-09-09T21:51:05;100370.53;;;14.50;76.76
55759;BME280;41678;52.126;20.664;2022-09-09T21:56:25;100373.03;;;14.54;77.18
55759;BME280;41678;52.126;20.664;2022-09-09T22:01:45;100360.16;;;14.42;77.34
55759;BME280;41678;52.126;20.664;2022-09-09T22:07:05;100365.44;;;14.42;77.21
55759;BME280;41678;52.126;20.664;2022-09-09T22:12:25;100369.88;;;14.40;77.02
55759;BME280;41678;52.126;20.664;2022-09-09T22:17:45;100377.91;;;14.37;77.54
55759;BME280;41678;52.126;20.664;2022-09-09T22:23:05;100371.91;;;14.30;76.88
55759;BME280;41678;52.126;20.664;2022-09-09T22:28:24;100358.63;;;14.31;76.33
55759;BME280;41678;52.126;20.664;2022-09-09T22:33:43;100360.38;;;14.33;76.19
55759;BME280;41678;52.126;20.664;2022-09-09T22:39:03;100358.75;;;14.27;76.32
55759;BME280;41678;52.126;20.664;2022-09-09T22:44:23;100356.19;;;14.24;76.00
55759;BME280;41678;52.126;20.664;2022-09-09T22:49:44;100360.38;;;14.33;76.25
55759;BME280;41678;52.126;20.664;2022-09-09T22:55:04;100359.56;;;14.30;76.23
55759;BME280;41678;52.126;20.664;2022-09-09T23:00:24;100353.44;;;14.27;76.88
55759;BME280;41678;52.126;20.664;2022-09-09T23:05:51;100345.53;;;14.25;75.96
55759;BME280;41678;52.126;20.664;2022-09-09T23:11:11;100347.09;;;14.34;76.36
55759;BME280;41678;52.126;20.664;2022-09-09T23:16:33;100349.97;;;14.25;76.48
55759;BME280;41678;52.126;20.664;2022-09-09T23:21:56;100343.69;;;14.29;76.39
55759;BME280;41678;52.126;20.664;2022-09-09T23:27:16;100334.13;;;14.23;77.02
55759;BME280;41678;52.126;20.664;2022-09-09T23:32:36;100332.38;;;14.22;76.78
55759;BME280;41678;52.126;20.664;2022-09-09T23:37:57;100328.78;;;14.26;77.37
55759;BME280;41678;52.126;20.664;2022-09-09T23:43:18;100328.63;;;14.31;77.25
55759;BME280;41678;52.126;20.664;2022-09-09T23:48:40;100322.50;;;14.29;77.36
55759;BME280;41678;52.126;20.664;2022-09-09T23:54:01;100316.41;;;14.25;77.45
55759;BME280;41678;52.126;20.664;2022-09-09T23:59:22;100316.41;;;14.25;77.75
